sensor_id;sensor_type;location;lat;lon;timestamp;temperature;humidity
35700;DHT22;21818;51.078;12.108;2023-11-19T00:00:33;12.40;87.10
35700;DHT22;21818;51.078;12.108;2023-11-19T00:02:59;12.40;87.10
35700;DHT22;21818;51.078;12.108;2023-11-19T00:05:24;12.40;87.10
35700;DHT22;21818;51.078;12.108;2023-11-19T00:07:50;12.50;87.00
35700;DHT22;21818;51.078;12.108;2023-11-19T00:10:16;12.50;86.90
35700;DHT22;21818;51.078;12.108;2023-11-19T00:12:46;12.50;87.30
35700;DHT22;21818;51.078;12.108;2023-11-19T00:15:13;12.60;86.90
35700;DHT22;21818;51.078;12.108;2023-11-19T00:17:40;12.50;86.70
35700;DHT22;21818;51.078;12.108;2023-11-19T00:20:06;12.50;86.90
35700;DHT22;21818;51.078;12.108;2023-11-19T00:22:33;12.50;87.00
35700;DHT22;21818;51.078;12.108;2023-11-19T00:24:58;12.40;86.80
35700;DHT22;21818;51.078;12.108;2023-11-19T00:27:25;12.40;86.90
35700;DHT22;21818;51.078;12.108;2023-11-19T00:29:50;12.40;87.20
35700;DHT22;21818;51.078;12.108;2023-11-19T00:32:16;12.40;87.20
35700;DHT22;21818;51.078;12.108;2023-11-19T00:34:44;12.40;87.20
35700;DHT22;21818;51.078;12.108;2023-11-19T00:37:10;12.30;87.30
35700;DHT22;21818;51.078;12.108;2023-11-19T00:39:35;12.40;87.20
35700;DHT22;21818;51.078;12.108;2023-11-19T00:42:01;12.40;87.30
35700;DHT22;21818;51.078;12.108;2023-11-19T00:44:26;12.30;87.30
35700;DHT22;21818;51.078;12.108;2023-11-19T00:46:52;12.40;87.30
35700;DHT22;21818;51.078;12.108;2023-11-19T00:49:17;12.40;87.20
35700;DHT22;21818;51.078;12.108;2023-11-19T00:51:43;12.40;87.40
35700;DHT22;21818;51.078;12.108;2023-11-19T00:54:10;12.40;87.30
35700;DHT22;21818;51.078;12.108;2023-11-19T00:56:36;12.40;87.40
35700;DHT22;21818;51.078;12.108;2023-11-19T00:59:02;12.40;87.30
35700;DHT22;21818;51.078;12.108;2023-11-19T01:01:29;12.40;87.40
35700;DHT22;21818;51.078;12.108;2023-11-19T01:03:55;12.40;87.40
35700;DHT22;21818;51.078;12.108;2023-11-19T01:06:29;12.40;87.40
35700;DHT22;21818;51.078;12.108;2023-11-19T01:08:56;12.40;87.50
35700;DHT22;21818;51.078;12.108;2023-11-19T01:11:23;12.40;87.70
35700;DHT22;21818;51.078;12.108;2023-11-19T01:13:49;12.40;87.70
35700;DHT22;21818;51.078;12.108;2023-11-19T01:16:15;12.30;87.90
35700;DHT22;21818;51.078;12.108;2023-11-19T01:18:41;12.20;87.80
35700;DHT22;21818;51.078;12.108;2023-11-19T01:21:06;12.20;88.60
35700;DHT22;21818;51.078;12.108;2023-11-19T01:23:32;12.30;88.20
35700;DHT22;21818;51.078;12.108;2023-11-19T01:25:58;12.30;87.90
35700;DHT22;21818;51.078;12.108;2023-11-19T01:28:24;12.30;88.10
35700;DHT22;21818;51.078;12.108;2023-11-19T01:30:52;12.40;87.90
35700;DHT22;21818;51.078;12.108;2023-11-19T01:33:18;12.40;87.90
35700;DHT22;21818;51.078;12.108;2023-11-19T01:35:43;12.40;87.90
35700;DHT22;21818;51.078;12.108;2023-11-19T01:38:09;12.30;88.10
35700;DHT22;21818;51.078;12.108;2023-11-19T01:40:35;12.40;88.10
35700;DHT22;21818;51.078;12.108;2023-11-19T01:43:02;12.40;88.20
35700;DHT22;21818;51.078;12.108;2023-11-19T01:45:28;12.30;88.30
35700;DHT22;21818;51.078;12.108;2023-11-19T01:47:56;12.20;88.50
35700;DHT22;21818;51.078;12.108;2023-11-19T01:50:23;12.20;88.60
35700;DHT22;21818;51.078;12.108;2023-11-19T01:52:52;12.20;88.90
35700;DHT22;21818;51.078;12.108;2023-11-19T01:55:18;12.20;88.70
35700;DHT22;21818;51.078;12.108;2023-11-19T01:57:46;12.20;89.00
35700;DHT22;21818;51.078;12.108;2023-11-19T02:00:13;12.20;89.10
35700;DHT22;21818;51.078;12.108;2023-11-19T02:02:40;12.30;88.90
35700;DHT22;21818;51.078;12.108;2023-11-19T02:05:06;12.30;89.00
35700;DHT22;21818;51.078;12.108;2023-11-19T02:07:32;12.40;88.90
35700;DHT22;21818;51.078;12.108;2023-11-19T02:09:58;12.40;88.90
35700;DHT22;21818;51.078;12.108;2023-11-19T02:12:28;12.40;88.90
35700;DHT22;21818;51.078;12.108;2023-11-19T02:14:54;12.50;88.90
35700;DHT22;21818;51.078;12.108;2023-11-19T02:17:30;12.50;88.90
35700;DHT22;21818;51.078;12.108;2023-11-19T02:20:00;12.40;89.10
35700;DHT22;21818;51.078;12.108;2023-11-19T02:22:26;12.50;89.10
35700;DHT22;21818;51.078;12.108;2023-11-19T02:25:00;12.50;89.10
35700;DHT22;21818;51.078;12.108;2023-11-19T02:27:55;12.50;89.20
35700;DHT22;21818;51.078;12.108;2023-11-19T02:30:22;12.50;89.30
35700;DHT22;21818;51.078;12.108;2023-11-19T02:32:55;12.50;89.10
35700;DHT22;21818;51.078;12.108;2023-11-19T02:35:24;12.60;89.20
35700;DHT22;21818;51.078;12.108;2023-11-19T02:37:49;12.60;89.30
35700;DHT22;21818;51.078;12.108;2023-11-19T02:40:15;12.60;89.30
35700;DHT22;21818;51.078;12.108;2023-11-19T02:42:41;12.60;89.50
35700;DHT22;21818;51.078;12.108;2023-11-19T02:45:07;12.60;89.50
35700;DHT22;21818;51.078;12.108;2023-11-19T02:47:36;12.50;89.50
35700;DHT22;21818;51.078;12.108;2023-11-19T02:50:01;12.50;89.60
35700;DHT22;21818;51.078;12.108;2023-11-19T02:52:28;12.60;89.60
35700;DHT22;21818;51.078;12.108;2023-11-19T02:54:53;12.60;89.60
35700;DHT22;21818;51.078;12.108;2023-11-19T02:57:19;12.60;89.70
35700;DHT22;21818;51.078;12.108;2023-11-19T02:59:46;12.60;89.80
35700;DHT22;21818;51.078;12.108;2023-11-19T03:02:11;12.60;89.80
35700;DHT22;21818;51.078;12.108;2023-11-19T03:04:38;12.50;89.80
35700;DHT22;21818;51.078;12.108;2023-11-19T03:07:05;12.60;90.00
35700;DHT22;21818;51.078;12.108;2023-11-19T03:09:31;12.70;90.00
35700;DHT22;21818;51.078;12.108;2023-11-19T03:11:56;12.70;90.10
35700;DHT22;21818;51.078;12.108;2023-11-19T03:14:22;12.70;90.10
35700;DHT22;21818;51.078;12.108;2023-11-19T03:16:48;12.70;90.20
35700;DHT22;21818;51.078;12.108;2023-11-19T03:19:14;12.70;90.20
35700;DHT22;21818;51.078;12.108;2023-11-19T03:21:40;12.60;90.30
35700;DHT22;21818;51.078;12.108;2023-11-19T03:24:06;12.60;90.30
35700;DHT22;21818;51.078;12.108;2023-11-19T03:26:32;12.60;90.30
35700;DHT22;21818;51.078;12.108;2023-11-19T03:28:59;12.60;90.30
35700;DHT22;21818;51.078;12.108;2023-11-19T03:31:25;12.60;90.40
35700;DHT22;21818;51.078;12.108;2023-11-19T03:33:51;12.60;90.30
35700;DHT22;21818;51.078;12.108;2023-11-19T03:36:16;12.60;90.40
35700;DHT22;21818;51.078;12.108;2023-11-19T03:38:42;12.60;90.40
35700;DHT22;21818;51.078;12.108;2023-11-19T03:41:14;12.60;90.50
35700;DHT22;21818;51.078;12.108;2023-11-19T03:43:41;12.60;90.50
35700;DHT22;21818;51.078;12.108;2023-11-19T03:46:18;12.60;90.50
35700;DHT22;21818;51.078;12.108;2023-11-19T03:48:44;12.50;90.50
35700;DHT22;21818;51.078;12.108;2023-11-19T03:51:11;12.60;90.50
35700;DHT22;21818;51.078;12.108;2023-11-19T03:53:42;12.60;90.50
35700;DHT22;21818;51.078;12.108;2023-11-19T03:56:07;12.50;90.60
35700;DHT22;21818;51.078;12.108;2023-11-19T03:58:34;12.50;90.60
35700;DHT22;21818;51.078;12.108;2023-11-19T04:01:01;12.50;90.70
35700;DHT22;21818;51.078;12.108;2023-11-19T04:03:27;12.40;90.70
35700;DHT22;21818;51.078;12.108;2023-11-19T04:05:53;12.40;90.80
35700;DHT22;21818;51.078;12.108;2023-11-19T04:08:19;12.40;90.80
35700;DHT22;21818;51.078;12.108;2023-11-19T04:10:45;12.50;90.80
35700;DHT22;21818;51.078;12.108;2023-11-19T04:13:10;12.50;90.80
35700;DHT22;21818;51.078;12.108;2023-11-19T04:15:36;12.40;90.90
35700;DHT22;21818;51.078;12.108;2023-11-19T04:18:01;12.40;91.00
35700;DHT22;21818;51.078;12.108;2023-11-19T04:20:27;12.40;91.00
35700;DHT22;21818;51.078;12.108;2023-11-19T04:22:53;12.40;91.10
35700;DHT22;21818;51.078;12.108;2023-11-19T04:25:19;12.40;91.10
35700;DHT22;21818;51.078;12.108;2023-11-19T04:27:44;12.40;91.10
35700;DHT22;21818;51.078;12.108;2023-11-19T04:30:11;12.40;91.20
35700;DHT22;21818;51.078;12.108;2023-11-19T04:32:37;12.50;91.20
35700;DHT22;21818;51.078;12.108;2023-11-19T04:35:03;12.50;91.20
35700;DHT22;21818;51.078;12.108;2023-11-19T04:37:28;12.50;91.10
35700;DHT22;21818;51.078;12.108;2023-11-19T04:39:54;12.50;91.20
35700;DHT22;21818;51.078;12.108;2023-11-19T04:42:22;12.40;91.20
35700;DHT22;21818;51.078;12.108;2023-11-19T04:44:48;12.40;91.30
35700;DHT22;21818;51.078;12.108;2023-11-19T04:47:13;12.40;91.30
35700;DHT22;21818;51.078;12.108;2023-11-19T04:49:42;12.50;91.30
35700;DHT22;21818;51.078;12.108;2023-11-19T04:52:11;12.50;91.40
35700;DHT22;21818;51.078;12.108;2023-11-19T04:54:41;12.60;91.40
35700;DHT22;21818;51.078;12.108;2023-11-19T04:57:07;12.50;91.40
35700;DHT22;21818;51.078;12.108;2023-11-19T04:59:36;12.60;91.50
35700;DHT22;21818;51.078;12.108;2023-11-19T05:02:01;12.60;91.50
35700;DHT22;21818;51.078;12.108;2023-11-19T05:04:27;12.60;91.60
35700;DHT22;21818;51.078;12.108;2023-11-19T05:06:52;12.60;91.60
35700;DHT22;21818;51.078;12.108;2023-11-19T05:09:19;12.60;91.60
35700;DHT22;21818;51.078;12.108;2023-11-19T05:11:44;12.60;91.60
35700;DHT22;21818;51.078;12.108;2023-11-19T05:14:10;12.70;91.70
35700;DHT22;21818;51.078;12.108;2023-11-19T05:16:35;12.60;91.70
35700;DHT22;21818;51.078;12.108;2023-11-19T05:19:01;12.60;91.80
35700;DHT22;21818;51.078;12.108;2023-11-19T05:21:26;12.60;91.80
35700;DHT22;21818;51.078;12.108;2023-11-19T05:23:52;12.60;91.80
35700;DHT22;21818;51.078;12.108;2023-11-19T05:26:19;12.60;91.90
35700;DHT22;21818;51.078;12.108;2023-11-19T05:28:45;12.60;91.90
35700;DHT22;21818;51.078;12.108;2023-11-19T05:31:11;12.50;92.00
35700;DHT22;21818;51.078;12.108;2023-11-19T05:33:36;12.50;92.00
35700;DHT22;21818;51.078;12.108;2023-11-19T05:36:02;12.60;92.00
35700;DHT22;21818;51.078;12.108;2023-11-19T05:38:29;12.60;92.00
35700;DHT22;21818;51.078;12.108;2023-11-19T05:40:55;12.60;92.00
35700;DHT22;21818;51.078;12.108;2023-11-19T05:43:21;12.60;92.10
35700;DHT22;21818;51.078;12.108;2023-11-19T05:45:46;12.60;92.10
35700;DHT22;21818;51.078;12.108;2023-11-19T05:48:12;12.70;92.10
35700;DHT22;21818;51.078;12.108;2023-11-19T05:50:38;12.70;92.00
35700;DHT22;21818;51.078;12.108;2023-11-19T05:53:04;12.70;92.10
35700;DHT22;21818;51.078;12.108;2023-11-19T05:55:36;12.70;92.10
35700;DHT22;21818;51.078;12.108;2023-11-19T05:58:03;12.70;92.10
35700;DHT22;21818;51.078;12.108;2023-11-19T06:00:29;12.70;92.10
35700;DHT22;21818;51.078;12.108;2023-11-19T06:02:56;12.70;92.20
35700;DHT22;21818;51.078;12.108;2023-11-19T06:05:21;12.70;92.20
35700;DHT22;21818;51.078;12.108;2023-11-19T06:07:47;12.80;92.30
35700;DHT22;21818;51.078;12.108;2023-11-19T06:10:13;12.80;92.30
35700;DHT22;21818;51.078;12.108;2023-11-19T06:12:41;12.80;92.30
35700;DHT22;21818;51.078;12.108;2023-11-19T06:15:08;12.80;92.30
35700;DHT22;21818;51.078;12.108;2023-11-19T06:17:34;12.80;92.30
35700;DHT22;21818;51.078;12.108;2023-11-19T06:20:00;12.80;92.30
35700;DHT22;21818;51.078;12.108;2023-11-19T06:22:25;12.80;92.30
35700;DHT22;21818;51.078;12.108;2023-11-19T06:24:51;12.80;92.30
35700;DHT22;21818;51.078;12.108;2023-11-19T06:27:16;12.80;92.40
35700;DHT22;21818;51.078;12.108;2023-11-19T06:29:42;12.80;92.40
35700;DHT22;21818;51.078;12.108;2023-11-19T06:32:07;12.80;92.50
35700;DHT22;21818;51.078;12.108;2023-11-19T06:34:34;12.80;92.50
35700;DHT22;21818;51.078;12.108;2023-11-19T06:36:59;12.80;92.50
35700;DHT22;21818;51.078;12.108;2023-11-19T06:39:25;12.70;92.50
35700;DHT22;21818;51.078;12.108;2023-11-19T06:41:51;12.70;92.50
35700;DHT22;21818;51.078;12.108;2023-11-19T06:44:17;12.70;92.50
35700;DHT22;21818;51.078;12.108;2023-11-19T06:46:43;12.70;92.50
35700;DHT22;21818;51.078;12.108;2023-11-19T06:49:08;12.70;92.50
35700;DHT22;21818;51.078;12.108;2023-11-19T06:51:34;12.80;92.50
35700;DHT22;21818;51.078;12.108;2023-11-19T06:54:00;12.80;92.50
35700;DHT22;21818;51.078;12.108;2023-11-19T06:56:26;12.90;92.30
35700;DHT22;21818;51.078;12.108;2023-11-19T06:58:52;13.00;92.20
35700;DHT22;21818;51.078;12.108;2023-11-19T07:01:18;13.10;92.00
35700;DHT22;21818;51.078;12.108;2023-11-19T07:03:45;13.20;91.90
35700;DHT22;21818;51.078;12.108;2023-11-19T07:06:11;13.20;91.80
35700;DHT22;21818;51.078;12.108;2023-11-19T07:08:38;13.20;91.80
35700;DHT22;21818;51.078;12.108;2023-11-19T07:11:04;13.30;91.80
35700;DHT22;21818;51.078;12.108;2023-11-19T07:13:30;13.30;91.70
35700;DHT22;21818;51.078;12.108;2023-11-19T07:15:58;13.30;91.70
35700;DHT22;21818;51.078;12.108;2023-11-19T07:18:24;13.30;91.60
35700;DHT22;21818;51.078;12.108;2023-11-19T07:20:50;13.30;91.60
35700;DHT22;21818;51.078;12.108;2023-11-19T07:23:16;13.40;91.60
35700;DHT22;21818;51.078;12.108;2023-11-19T07:25:43;13.40;91.60
35700;DHT22;21818;51.078;12.108;2023-11-19T07:28:12;13.40;91.50
35700;DHT22;21818;51.078;12.108;2023-11-19T07:30:38;13.40;91.50
35700;DHT22;21818;51.078;12.108;2023-11-19T07:33:03;13.40;91.50
35700;DHT22;21818;51.078;12.108;2023-11-19T07:35:29;13.40;91.40
35700;DHT22;21818;51.078;12.108;2023-11-19T07:37:56;13.40;91.40
35700;DHT22;21818;51.078;12.108;2023-11-19T07:40:23;13.40;91.40
35700;DHT22;21818;51.078;12.108;2023-11-19T07:42:49;13.40;91.50
35700;DHT22;21818;51.078;12.108;2023-11-19T07:45:14;13.30;91.50
35700;DHT22;21818;51.078;12.108;2023-11-19T07:47:40;13.30;91.50
35700;DHT22;21818;51.078;12.108;2023-11-19T07:50:06;13.30;91.60
35700;DHT22;21818;51.078;12.108;2023-11-19T07:52:32;13.30;91.50
35700;DHT22;21818;51.078;12.108;2023-11-19T07:54:57;13.40;91.50
35700;DHT22;21818;51.078;12.108;2023-11-19T07:57:23;13.30;91.50
35700;DHT22;21818;51.078;12.108;2023-11-19T07:59:49;13.40;91.50
35700;DHT22;21818;51.078;12.108;2023-11-19T08:02:15;13.50;91.40
35700;DHT22;21818;51.078;12.108;2023-11-19T08:04:41;13.50;91.30
35700;DHT22;21818;51.078;12.108;2023-11-19T08:07:10;13.60;91.30
35700;DHT22;21818;51.078;12.108;2023-11-19T08:09:36;13.50;91.30
35700;DHT22;21818;51.078;12.108;2023-11-19T08:12:03;13.60;91.50
35700;DHT22;21818;51.078;12.108;2023-11-19T08:14:29;13.60;91.20
35700;DHT22;21818;51.078;12.108;2023-11-19T08:16:54;13.60;91.20
35700;DHT22;21818;51.078;12.108;2023-11-19T08:19:20;13.60;91.20
35700;DHT22;21818;51.078;12.108;2023-11-19T08:21:46;13.60;91.20
35700;DHT22;21818;51.078;12.108;2023-11-19T08:24:11;13.60;91.10
35700;DHT22;21818;51.078;12.108;2023-11-19T08:26:37;13.60;91.10
35700;DHT22;21818;51.078;12.108;2023-11-19T08:29:02;13.60;91.10
35700;DHT22;21818;51.078;12.108;2023-11-19T08:31:28;13.60;91.10
35700;DHT22;21818;51.078;12.108;2023-11-19T08:33:54;13.60;91.10
35700;DHT22;21818;51.078;12.108;2023-11-19T08:36:20;13.70;91.10
35700;DHT22;21818;51.078;12.108;2023-11-19T08:38:46;13.70;91.10
35700;DHT22;21818;51.078;12.108;2023-11-19T08:41:12;13.70;91.10
35700;DHT22;21818;51.078;12.108;2023-11-19T08:43:37;13.70;91.30
35700;DHT22;21818;51.078;12.108;2023-11-19T08:46:09;13.70;91.10
35700;DHT22;21818;51.078;12.108;2023-11-19T08:48:35;13.70;91.00
35700;DHT22;21818;51.078;12.108;2023-11-19T08:51:01;13.70;91.10
35700;DHT22;21818;51.078;12.108;2023-11-19T08:53:26;13.60;91.10
35700;DHT22;21818;51.078;12.108;2023-11-19T08:55:52;13.70;91.10
35700;DHT22;21818;51.078;12.108;2023-11-19T08:58:18;13.60;91.10
35700;DHT22;21818;51.078;12.108;2023-11-19T09:00:43;13.60;91.10
35700;DHT22;21818;51.078;12.108;2023-11-19T09:03:09;13.60;91.20
35700;DHT22;21818;51.078;12.108;2023-11-19T09:05:34;13.60;91.20
35700;DHT22;21818;51.078;12.108;2023-11-19T09:08:00;13.60;91.20
35700;DHT22;21818;51.078;12.108;2023-11-19T09:10:26;13.70;91.20
35700;DHT22;21818;51.078;12.108;2023-11-19T09:12:52;13.60;91.30
35700;DHT22;21818;51.078;12.108;2023-11-19T09:15:18;13.60;91.30
35700;DHT22;21818;51.078;12.108;2023-11-19T09:17:43;13.60;91.30
35700;DHT22;21818;51.078;12.108;2023-11-19T09:20:11;13.60;91.40
35700;DHT22;21818;51.078;12.108;2023-11-19T09:22:40;13.60;91.40
35700;DHT22;21818;51.078;12.108;2023-11-19T09:25:06;13.60;91.30
35700;DHT22;21818;51.078;12.108;2023-11-19T09:27:32;13.60;91.40
35700;DHT22;21818;51.078;12.108;2023-11-19T09:29:57;13.60;91.40
35700;DHT22;21818;51.078;12.108;2023-11-19T09:32:24;13.60;91.30
35700;DHT22;21818;51.078;12.108;2023-11-19T09:34:50;13.70;91.30
35700;DHT22;21818;51.078;12.108;2023-11-19T09:37:16;13.70;91.30
35700;DHT22;21818;51.078;12.108;2023-11-19T09:39:42;13.80;91.20
35700;DHT22;21818;51.078;12.108;2023-11-19T09:42:12;13.70;91.20
35700;DHT22;21818;51.078;12.108;2023-11-19T09:44:38;13.70;91.30
35700;DHT22;21818;51.078;12.108;2023-11-19T09:47:06;13.70;91.30
35700;DHT22;21818;51.078;12.108;2023-11-19T09:49:33;13.80;91.40
35700;DHT22;21818;51.078;12.108;2023-11-19T09:52:00;13.70;91.30
35700;DHT22;21818;51.078;12.108;2023-11-19T09:54:26;13.70;91.40
35700;DHT22;21818;51.078;12.108;2023-11-19T09:56:51;13.70;91.40
35700;DHT22;21818;51.078;12.108;2023-11-19T09:59:18;13.70;91.40
35700;DHT22;21818;51.078;12.108;2023-11-19T10:01:45;13.70;91.50
35700;DHT22;21818;51.078;12.108;2023-11-19T10:04:12;13.70;91.50
35700;DHT22;21818;51.078;12.108;2023-11-19T10:06:41;13.70;91.50
35700;DHT22;21818;51.078;12.108;2023-11-19T10:09:07;13.70;91.50
35700;DHT22;21818;51.078;12.108;2023-11-19T10:11:33;13.80;91.50
35700;DHT22;21818;51.078;12.108;2023-11-19T10:13:59;13.80;91.50
35700;DHT22;21818;51.078;12.108;2023-11-19T10:16:29;13.80;91.50
35700;DHT22;21818;51.078;12.108;2023-11-19T10:18:59;13.80;91.50
35700;DHT22;21818;51.078;12.108;2023-11-19T10:21:25;13.90;91.50
35700;DHT22;21818;51.078;12.108;2023-11-19T10:23:55;13.90;91.50
35700;DHT22;21818;51.078;12.108;2023-11-19T10:26:23;13.80;91.50
35700;DHT22;21818;51.078;12.108;2023-11-19T10:28:49;13.90;91.50
35700;DHT22;21818;51.078;12.108;2023-11-19T10:31:16;13.90;91.40
35700;DHT22;21818;51.078;12.108;2023-11-19T10:33:42;13.90;91.40
35700;DHT22;21818;51.078;12.108;2023-11-19T10:36:11;13.90;91.40
35700;DHT22;21818;51.078;12.108;2023-11-19T10:38:38;14.00;91.30
35700;DHT22;21818;51.078;12.108;2023-11-19T10:41:04;14.00;91.30
35700;DHT22;21818;51.078;12.108;2023-11-19T10:43:31;14.00;91.20
35700;DHT22;21818;51.078;12.108;2023-11-19T10:46:13;14.10;91.30
35700;DHT22;21818;51.078;12.108;2023-11-19T10:48:39;14.10;90.90
35700;DHT22;21818;51.078;12.108;2023-11-19T10:51:06;14.20;90.80
35700;DHT22;21818;51.078;12.108;2023-11-19T10:53:36;14.30;90.80
35700;DHT22;21818;51.078;12.108;2023-11-19T10:56:05;14.30;90.60
35700;DHT22;21818;51.078;12.108;2023-11-19T10:58:35;14.30;90.70
35700;DHT22;21818;51.078;12.108;2023-11-19T11:01:09;14.40;90.70
35700;DHT22;21818;51.078;12.108;2023-11-19T11:03:40;14.30;90.60
35700;DHT22;21818;51.078;12.108;2023-11-19T11:06:06;14.40;90.60
35700;DHT22;21818;51.078;12.108;2023-11-19T11:08:33;14.40;90.50
35700;DHT22;21818;51.078;12.108;2023-11-19T11:11:02;14.50;90.50
35700;DHT22;21818;51.078;12.108;2023-11-19T11:13:30;14.60;90.40
35700;DHT22;21818;51.078;12.108;2023-11-19T11:15:57;14.70;90.30
35700;DHT22;21818;51.078;12.108;2023-11-19T11:18:26;14.60;90.20
35700;DHT22;21818;51.078;12.108;2023-11-19T11:20:55;14.60;90.20
35700;DHT22;21818;51.078;12.108;2023-11-19T11:37:37;14.90;89.50
35700;DHT22;21818;51.078;12.108;2023-11-19T11:40:05;15.00;89.40
35700;DHT22;21818;51.078;12.108;2023-11-19T11:42:39;15.00;89.10
35700;DHT22;21818;51.078;12.108;2023-11-19T11:45:08;15.10;88.90
35700;DHT22;21818;51.078;12.108;2023-11-19T11:50:12;15.20;88.50
35700;DHT22;21818;51.078;12.108;2023-11-19T11:55:33;15.30;87.90
35700;DHT22;21818;51.078;12.108;2023-11-19T11:58:00;15.40;87.80
35700;DHT22;21818;51.078;12.108;2023-11-19T12:00:33;15.50;87.60
35700;DHT22;21818;51.078;12.108;2023-11-19T12:03:05;15.50;87.40
35700;DHT22;21818;51.078;12.108;2023-11-19T12:05:31;15.60;87.10
35700;DHT22;21818;51.078;12.108;2023-11-19T12:08:04;15.70;86.90
35700;DHT22;21818;51.078;12.108;2023-11-19T12:10:36;15.80;87.10
35700;DHT22;21818;51.078;12.108;2023-11-19T12:13:06;15.90;86.40
35700;DHT22;21818;51.078;12.108;2023-11-19T12:18:20;16.10;85.70
35700;DHT22;21818;51.078;12.108;2023-11-19T12:20:46;16.10;85.70
35700;DHT22;21818;51.078;12.108;2023-11-19T12:23:12;16.10;85.60
35700;DHT22;21818;51.078;12.108;2023-11-19T12:25:38;16.00;85.70
35700;DHT22;21818;51.078;12.108;2023-11-19T12:28:03;15.90;85.90
35700;DHT22;21818;51.078;12.108;2023-11-19T12:30:29;15.90;85.90
35700;DHT22;21818;51.078;12.108;2023-11-19T12:32:55;15.90;85.70
35700;DHT22;21818;51.078;12.108;2023-11-19T12:35:21;16.10;85.50
35700;DHT22;21818;51.078;12.108;2023-11-19T12:37:51;16.20;85.10
35700;DHT22;21818;51.078;12.108;2023-11-19T12:40:34;16.40;84.70
35700;DHT22;21818;51.078;12.108;2023-11-19T12:43:00;16.60;84.20
35700;DHT22;21818;51.078;12.108;2023-11-19T12:45:35;16.70;84.00
35700;DHT22;21818;51.078;12.108;2023-11-19T12:48:08;16.80;83.60
35700;DHT22;21818;51.078;12.108;2023-11-19T12:51:10;16.90;83.30
35700;DHT22;21818;51.078;12.108;2023-11-19T12:53:51;17.00;82.70
35700;DHT22;21818;51.078;12.108;2023-11-19T12:56:20;17.10;82.80
35700;DHT22;21818;51.078;12.108;2023-11-19T12:58:47;17.10;82.80
35700;DHT22;21818;51.078;12.108;2023-11-19T13:01:19;17.20;82.60
35700;DHT22;21818;51.078;12.108;2023-11-19T13:03:46;17.20;82.30
35700;DHT22;21818;51.078;12.108;2023-11-19T13:06:13;17.30;82.20
35700;DHT22;21818;51.078;12.108;2023-11-19T13:08:49;17.30;81.90
35700;DHT22;21818;51.078;12.108;2023-11-19T13:11:34;17.40;81.80
35700;DHT22;21818;51.078;12.108;2023-11-19T13:14:03;17.40;81.40
35700;DHT22;21818;51.078;12.108;2023-11-19T13:16:30;17.50;81.50
35700;DHT22;21818;51.078;12.108;2023-11-19T13:18:56;17.50;81.30
35700;DHT22;21818;51.078;12.108;2023-11-19T13:21:23;17.50;81.20
35700;DHT22;21818;51.078;12.108;2023-11-19T13:23:48;17.50;81.10
35700;DHT22;21818;51.078;12.108;2023-11-19T13:26:14;17.60;80.90
35700;DHT22;21818;51.078;12.108;2023-11-19T13:28:40;17.60;80.80
35700;DHT22;21818;51.078;12.108;2023-11-19T13:31:06;17.70;80.60
35700;DHT22;21818;51.078;12.108;2023-11-19T13:33:31;17.70;80.40
35700;DHT22;21818;51.078;12.108;2023-11-19T13:35:57;17.80;80.30
35700;DHT22;21818;51.078;12.108;2023-11-19T13:38:23;17.80;80.30
35700;DHT22;21818;51.078;12.108;2023-11-19T13:40:49;17.70;80.10
35700;DHT22;21818;51.078;12.108;2023-11-19T13:43:15;17.80;80.00
35700;DHT22;21818;51.078;12.108;2023-11-19T13:45:40;17.80;79.90
35700;DHT22;21818;51.078;12.108;2023-11-19T13:48:06;17.80;79.90
35700;DHT22;21818;51.078;12.108;2023-11-19T13:50:31;17.60;79.90
35700;DHT22;21818;51.078;12.108;2023-11-19T13:52:59;17.60;80.00
35700;DHT22;21818;51.078;12.108;2023-11-19T13:55:25;17.60;79.90
35700;DHT22;21818;51.078;12.108;2023-11-19T13:57:51;17.50;80.10
35700;DHT22;21818;51.078;12.108;2023-11-19T14:00:17;17.50;80.20
35700;DHT22;21818;51.078;12.108;2023-11-19T14:02:45;17.50;80.10
35700;DHT22;21818;51.078;12.108;2023-11-19T14:05:11;17.50;80.00
35700;DHT22;21818;51.078;12.108;2023-11-19T14:07:37;17.60;79.90
35700;DHT22;21818;51.078;12.108;2023-11-19T14:10:03;17.60;79.80
35700;DHT22;21818;51.078;12.108;2023-11-19T14:12:31;17.60;79.70
35700;DHT22;21818;51.078;12.108;2023-11-19T14:14:57;17.60;79.60
35700;DHT22;21818;51.078;12.108;2023-11-19T14:17:23;17.60;79.60
35700;DHT22;21818;51.078;12.108;2023-11-19T14:19:50;17.60;79.60
35700;DHT22;21818;51.078;12.108;2023-11-19T14:22:16;17.60;79.50
35700;DHT22;21818;51.078;12.108;2023-11-19T14:24:41;17.60;79.60
35700;DHT22;21818;51.078;12.108;2023-11-19T14:27:11;17.50;79.60
35700;DHT22;21818;51.078;12.108;2023-11-19T14:29:38;17.50;79.60
35700;DHT22;21818;51.078;12.108;2023-11-19T14:32:05;17.50;79.60
35700;DHT22;21818;51.078;12.108;2023-11-19T14:34:31;17.40;79.60
35700;DHT22;21818;51.078;12.108;2023-11-19T14:36:57;17.40;79.60
35700;DHT22;21818;51.078;12.108;2023-11-19T14:39:23;17.30;79.80
35700;DHT22;21818;51.078;12.108;2023-11-19T14:41:49;17.10;80.00
35700;DHT22;21818;51.078;12.108;2023-11-19T14:44:16;17.00;80.20
35700;DHT22;21818;51.078;12.108;2023-11-19T14:46:42;17.00;80.40
35700;DHT22;21818;51.078;12.108;2023-11-19T14:49:08;16.90;80.50
35700;DHT22;21818;51.078;12.108;2023-11-19T14:51:37;16.80;80.60
35700;DHT22;21818;51.078;12.108;2023-11-19T14:54:06;16.70;80.70
35700;DHT22;21818;51.078;12.108;2023-11-19T14:56:32;16.70;80.90
35700;DHT22;21818;51.078;12.108;2023-11-19T14:58:57;16.60;81.00
35700;DHT22;21818;51.078;12.108;2023-11-19T15:01:24;16.50;81.00
35700;DHT22;21818;51.078;12.108;2023-11-19T15:03:50;16.50;81.00
35700;DHT22;21818;51.078;12.108;2023-11-19T15:06:15;16.40;81.10
35700;DHT22;21818;51.078;12.108;2023-11-19T15:08:41;16.40;81.10
35700;DHT22;21818;51.078;12.108;2023-11-19T15:11:07;16.40;81.20
35700;DHT22;21818;51.078;12.108;2023-11-19T15:13:34;16.30;81.20
35700;DHT22;21818;51.078;12.108;2023-11-19T15:16:02;16.30;81.20
35700;DHT22;21818;51.078;12.108;2023-11-19T15:18:31;16.20;81.30
35700;DHT22;21818;51.078;12.108;2023-11-19T15:20:56;16.20;81.30
35700;DHT22;21818;51.078;12.108;2023-11-19T15:23:22;16.20;81.40
35700;DHT22;21818;51.078;12.108;2023-11-19T15:25:47;16.10;81.40
35700;DHT22;21818;51.078;12.108;2023-11-19T15:28:14;16.10;81.50
35700;DHT22;21818;51.078;12.108;2023-11-19T15:30:40;16.00;81.50
35700;DHT22;21818;51.078;12.108;2023-11-19T15:33:05;16.00;81.60
35700;DHT22;21818;51.078;12.108;2023-11-19T15:35:31;16.00;81.60